BBC Delaware — V2CN9 — position and weather

sailwx.info

Track history (hours):
 
Tides and Currents Weather Stations Pressure Air Temp Water Temp Dewpoint Dewpoint Depression Visibility Wind Speed Wind Dir Waves Ship Positions

BBC Delaware

Last reported at 2015-Jan-17 20:19 UTC. Time now 2015-Feb-01 16:44 UTC.
Position S 34°28' E 022°38'.
Warning: this ship's position is 14 days out of date.

Length 138 m; draft 6.2 m.

Type: Cargo ship. MMSI: 305057000.

Date/timePositionNaut miles runAvg speedWind from/ knotsBaromVisibWave heightAir tempDewpointWater temp
2015-Jan-17 20:19S 34°28' E 022°38'324 8.3
2015-Jan-16 05:18S 32°37' E 028°44'19414.9
2015-Jan-15 16:17S 30°03' E 031°02'912.4
2015-Jan-15 15:33S 29°55' E 031°06'4 4.5
2015-Jan-15 14:33S 29°52' E 031°02'0 0.1
2015-Jan-15 13:27S 29°52' E 031°02'0 0.0
2015-Jan-15 12:33S 29°52' E 031°02'0 0.0
2015-Jan-15 11:25S 29°52' E 031°02'0 0.0
2015-Jan-15 10:24S 29°52' E 031°02'0 0.0
2015-Jan-15 09:30S 29°52' E 031°02'0 0.0
2015-Jan-15 08:30S 29°52' E 031°02'0 0.0
2015-Jan-15 07:30S 29°52' E 031°02'0 0.0
2015-Jan-15 05:12S 29°52' E 031°02'0 0.0
2015-Jan-15 04:32S 29°52' E 031°02'0 0.0
2015-Jan-15 03:17S 29°52' E 031°02'0 0.0
2015-Jan-15 02:06S 29°52' E 031°02'0 0.0
2015-Jan-15 01:27S 29°52' E 031°02'0 0.0
2015-Jan-15 00:09S 29°52' E 031°02'0 0.0
2015-Jan-14 23:33S 29°52' E 031°02'0 0.0
2015-Jan-14 22:27S 29°52' E 031°02'0 0.0
2015-Jan-14 21:33S 29°52' E 031°02'1 0.9
2015-Jan-14 20:29S 29°53' E 031°03'6 6.5
2015-Jan-14 19:31S 29°47' E 031°07'1 1.3
2015-Jan-14 18:25S 29°46' E 031°07'0 0.0
2015-Jan-14 17:13S 29°46' E 031°07'0 0.0
2015-Jan-14 16:31S 29°46' E 031°07'0 0.0
2015-Jan-14 15:13S 29°46' E 031°07'0 0.0
2015-Jan-14 14:31S 29°46' E 031°07'0 0.5
2015-Jan-14 13:33S 29°45' E 031°07'9 9.3
2015-Jan-14 12:33S 29°45' E 031°18'1211.9
2015-Jan-14 11:31S 29°39' E 031°30'1211.6
2015-Jan-14 10:29S 29°36' E 031°43'  
Track history (hours):
 
Tides and Currents Weather Stations Pressure Air Temp Water Temp Dewpoint Dewpoint Depression Visibility Wind Speed Wind Dir Waves Ship Positions

BBC Delaware

Last reported at 2015-Jan-17 20:19 UTC. Time now 2015-Feb-01 16:44 UTC.
Position S 34°28' E 022°38'.
Warning: this ship's position is 14 days out of date.

Length 138 m; draft 6.2 m.

Type: Cargo ship. MMSI: 305057000.

Date/timePositionNaut miles runAvg speedWind from/ knotsBaromVisibWave heightAir tempDewpointWater temp
2015-Jan-17 20:19S 34°28' E 022°38'324 8.3
2015-Jan-16 05:18S 32°37' E 028°44'19414.9
2015-Jan-15 16:17S 30°03' E 031°02'912.4
2015-Jan-15 15:33S 29°55' E 031°06'4 4.5
2015-Jan-15 14:33S 29°52' E 031°02'0 0.1
2015-Jan-15 13:27S 29°52' E 031°02'0 0.0
2015-Jan-15 12:33S 29°52' E 031°02'0 0.0
2015-Jan-15 11:25S 29°52' E 031°02'0 0.0
2015-Jan-15 10:24S 29°52' E 031°02'0 0.0
2015-Jan-15 09:30S 29°52' E 031°02'0 0.0
2015-Jan-15 08:30S 29°52' E 031°02'0 0.0
2015-Jan-15 07:30S 29°52' E 031°02'0 0.0
2015-Jan-15 05:12S 29°52' E 031°02'0 0.0
2015-Jan-15 04:32S 29°52' E 031°02'0 0.0
2015-Jan-15 03:17S 29°52' E 031°02'0 0.0
2015-Jan-15 02:06S 29°52' E 031°02'0 0.0
2015-Jan-15 01:27S 29°52' E 031°02'0 0.0
2015-Jan-15 00:09S 29°52' E 031°02'0 0.0
2015-Jan-14 23:33S 29°52' E 031°02'0 0.0
2015-Jan-14 22:27S 29°52' E 031°02'0 0.0
2015-Jan-14 21:33S 29°52' E 031°02'1 0.9
2015-Jan-14 20:29S 29°53' E 031°03'6 6.5
2015-Jan-14 19:31S 29°47' E 031°07'1 1.3
2015-Jan-14 18:25S 29°46' E 031°07'0 0.0
2015-Jan-14 17:13S 29°46' E 031°07'0 0.0
2015-Jan-14 16:31S 29°46' E 031°07'0 0.0
2015-Jan-14 15:13S 29°46' E 031°07'0 0.0
2015-Jan-14 14:31S 29°46' E 031°07'0 0.5
2015-Jan-14 13:33S 29°45' E 031°07'9 9.3
2015-Jan-14 12:33S 29°45' E 031°18'1211.9
2015-Jan-14 11:31S 29°39' E 031°30'1211.6
2015-Jan-14 10:29S 29°36' E 031°43'  

Dump ship's entire track history